createdAt,value
2019-02-11T00:00:52.947Z,0.00
2019-02-11T00:01:53.228Z,0.00
2019-02-11T00:02:53.202Z,0.00
2019-02-11T00:03:59.411Z,0.00
2019-02-11T00:04:54.606Z,0.00
2019-02-11T00:05:54.213Z,0.00
2019-02-11T00:06:54.650Z,0.00
2019-02-11T00:07:55.418Z,0.00
2019-02-11T00:08:55.425Z,0.00
2019-02-11T00:09:55.941Z,0.00
2019-02-11T00:10:55.752Z,0.00
2019-02-11T00:11:56.751Z,0.00
2019-02-11T00:12:56.703Z,0.00
2019-02-11T00:13:57.190Z,0.00
2019-02-11T00:14:57.479Z,0.00
2019-02-11T00:15:58.338Z,0.00
2019-02-11T00:16:58.325Z,0.00
2019-02-11T00:17:58.714Z,0.00
2019-02-11T00:18:59.482Z,0.00
2019-02-11T00:20:00.025Z,0.00
2019-02-11T00:20:59.355Z,0.00
2019-02-11T00:21:59.915Z,0.00
2019-02-11T00:22:59.770Z,0.00
2019-02-11T00:24:00.641Z,0.00
2019-02-11T00:25:00.513Z,0.00
2019-02-11T00:26:01.174Z,0.00
2019-02-11T00:27:01.789Z,0.00
2019-02-11T00:28:01.793Z,0.00
2019-02-11T00:29:01.596Z,0.00
2019-02-11T00:30:02.831Z,0.00
2019-02-11T00:31:02.845Z,0.00
2019-02-11T00:32:03.253Z,0.00
2019-02-11T00:33:03.833Z,0.00
2019-02-11T00:34:03.672Z,0.00
2019-02-11T00:35:03.763Z,0.00
2019-02-11T00:36:04.185Z,0.00
2019-02-11T00:37:04.208Z,0.00
2019-02-11T00:38:04.126Z,0.00
2019-02-11T00:39:05.004Z,0.00
2019-02-11T00:40:06.069Z,0.00
2019-02-11T00:41:05.887Z,0.00
2019-02-11T00:42:05.994Z,0.00
2019-02-11T00:43:06.089Z,0.00
2019-02-11T00:44:06.084Z,0.00
2019-02-11T00:45:06.597Z,0.00
2019-02-11T00:46:06.647Z,0.00
2019-02-11T00:47:06.831Z,0.00
2019-02-11T00:48:07.213Z,0.00
2019-02-11T00:49:07.358Z,0.00
2019-02-11T00:50:07.364Z,0.00
2019-02-11T00:51:07.573Z,0.00
2019-02-11T00:52:07.629Z,0.00
2019-02-11T00:53:07.784Z,0.00
2019-02-11T00:54:07.770Z,0.00
2019-02-11T00:55:08.001Z,0.00
2019-02-11T00:56:08.800Z,0.00
2019-02-11T00:57:08.741Z,0.00
2019-02-11T00:58:08.542Z,0.00
2019-02-11T00:59:09.265Z,0.00
2019-02-11T01:00:09.681Z,0.00
2019-02-11T01:01:09.439Z,0.00
2019-02-11T01:02:10.416Z,0.00
2019-02-11T01:03:10.274Z,0.00
2019-02-11T01:04:10.577Z,0.00
2019-02-11T01:05:11.460Z,0.00
2019-02-11T01:06:11.366Z,0.00
2019-02-11T01:07:11.743Z,0.00
2019-02-11T01:08:12.894Z,0.00
2019-02-11T01:09:12.491Z,0.00
2019-02-11T01:10:12.919Z,0.00
2019-02-11T01:11:12.865Z,0.00
2019-02-11T01:12:13.161Z,0.00
2019-02-11T01:13:13.510Z,0.00
2019-02-11T01:14:13.805Z,0.00
2019-02-11T01:15:15.214Z,0.00
2019-02-11T01:16:14.622Z,0.00
2019-02-11T01:17:14.993Z,0.00
2019-02-11T01:18:15.386Z,0.00
2019-02-11T01:19:15.806Z,0.00
2019-02-11T01:20:16.638Z,0.00
2019-02-11T01:21:16.453Z,0.00
2019-02-11T01:22:16.954Z,0.00
2019-02-11T01:23:17.105Z,0.00
2019-02-11T01:24:17.314Z,0.00
2019-02-11T01:25:17.324Z,0.00
2019-02-11T01:26:17.943Z,0.00
2019-02-11T01:27:18.471Z,0.00
2019-02-11T01:28:17.970Z,0.00
2019-02-11T01:29:18.310Z,0.00
2019-02-11T01:30:18.916Z,0.00
2019-02-11T01:31:18.748Z,0.00
2019-02-11T01:32:19.171Z,0.00
2019-02-11T01:33:19.704Z,0.00
2019-02-11T01:34:19.640Z,0.00
2019-02-11T01:35:21.074Z,0.00
2019-02-11T01:36:21.488Z,0.00
2019-02-11T01:37:21.632Z,0.00
2019-02-11T01:38:21.911Z,0.00
2019-02-11T01:39:21.907Z,0.00
2019-02-11T01:40:21.885Z,0.00
2019-02-11T01:41:22.340Z,0.00
2019-02-11T01:42:22.813Z,0.00
2019-02-11T01:43:23.071Z,0.00
2019-02-11T01:44:23.329Z,0.00
2019-02-11T01:45:23.652Z,0.00
2019-02-11T01:46:23.459Z,0.00
2019-02-11T01:47:24.532Z,0.00
2019-02-11T01:48:24.597Z,0.00
2019-02-11T01:49:24.852Z,0.00
2019-02-11T01:50:24.707Z,0.00
2019-02-11T01:51:25.853Z,0.00
2019-02-11T01:52:25.793Z,0.00
2019-02-11T01:53:25.544Z,0.00
2019-02-11T01:54:26.521Z,0.00
2019-02-11T01:55:26.377Z,0.00
2019-02-11T01:56:29.979Z,0.00
2019-02-11T01:57:26.790Z,0.00
2019-02-11T01:58:27.458Z,0.00
2019-02-11T01:59:27.885Z,0.00
2019-02-11T02:00:27.747Z,0.00
2019-02-11T02:01:28.304Z,0.00
2019-02-11T02:02:28.368Z,0.00
2019-02-11T02:03:28.285Z,0.00
2019-02-11T02:04:28.697Z,0.00
2019-02-11T02:05:29.107Z,0.00
2019-02-11T02:06:29.982Z,0.00
2019-02-11T02:07:29.993Z,0.00
2019-02-11T02:08:30.104Z,0.00
2019-02-11T02:09:29.955Z,0.00
2019-02-11T02:11:30.833Z,0.00
2019-02-11T02:12:30.730Z,0.00
2019-02-11T02:13:31.129Z,0.00
2019-02-11T02:14:31.513Z,0.00
2019-02-11T02:15:32.094Z,0.00
2019-02-11T02:16:31.957Z,0.00
2019-02-11T02:17:32.772Z,0.00
2019-02-11T02:18:32.677Z,0.00
2019-02-11T02:19:33.108Z,0.00
2019-02-11T02:20:33.722Z,0.00
2019-02-11T02:21:33.619Z,0.00
2019-02-11T02:22:34.283Z,0.00
2019-02-11T02:23:34.906Z,0.00
2019-02-11T02:24:34.458Z,0.00
2019-02-11T02:25:34.377Z,0.00
2019-02-11T02:26:35.233Z,0.00
2019-02-11T02:27:35.954Z,0.00
2019-02-11T02:28:36.268Z,0.00
2019-02-11T02:29:36.370Z,0.00
2019-02-11T02:30:36.794Z,0.00
2019-02-11T02:31:36.691Z,0.00
2019-02-11T02:32:37.527Z,0.00
2019-02-11T02:33:37.766Z,0.00
2019-02-11T02:34:37.675Z,0.00
2019-02-11T02:35:37.902Z,0.00
2019-02-11T02:36:38.371Z,0.00
2019-02-11T02:37:38.266Z,0.00
2019-02-11T02:38:38.659Z,0.00
2019-02-11T02:39:39.658Z,0.00
2019-02-11T02:40:39.519Z,0.00
2019-02-11T02:41:40.042Z,0.00
2019-02-11T02:42:40.152Z,0.00
2019-02-11T02:43:40.151Z,0.00
2019-02-11T02:44:40.023Z,0.00
2019-02-11T02:45:40.551Z,0.00
2019-02-11T02:46:40.350Z,0.00
2019-02-11T02:47:40.746Z,0.00
2019-02-11T02:48:41.081Z,0.00
2019-02-11T02:49:41.481Z,0.00
2019-02-11T02:50:42.005Z,0.00
2019-02-11T02:51:42.412Z,0.00
2019-02-11T02:52:42.733Z,0.00
2019-02-11T02:53:43.149Z,0.00
2019-02-11T02:54:43.575Z,0.00
2019-02-11T02:55:44.014Z,0.00
2019-02-11T02:56:44.389Z,0.00
2019-02-11T02:57:44.704Z,0.00
2019-02-11T02:58:45.573Z,0.00
2019-02-11T02:59:45.454Z,0.00
2019-02-11T03:00:45.858Z,0.00
2019-02-11T03:01:46.292Z,0.00
2019-02-11T03:02:46.829Z,0.00
2019-02-11T03:03:46.688Z,0.00
2019-02-11T03:04:47.260Z,0.00
2019-02-11T03:05:47.261Z,0.00
2019-02-11T03:06:47.785Z,0.00
2019-02-11T03:07:47.125Z,0.00
2019-02-11T03:08:47.446Z,0.00
2019-02-11T03:09:47.766Z,0.00
2019-02-11T03:10:48.435Z,0.00
2019-02-11T03:11:48.276Z,0.00
2019-02-11T03:12:48.737Z,0.00
2019-02-11T03:13:49.054Z,0.00
2019-02-11T03:14:49.435Z,0.00
2019-02-11T03:15:49.885Z,0.00
2019-02-11T03:16:51.428Z,0.00
2019-02-11T03:17:51.137Z,0.00
2019-02-11T03:18:51.372Z,0.00
2019-02-11T03:19:51.671Z,0.00
2019-02-11T03:20:51.543Z,0.00
2019-02-11T03:21:52.283Z,0.00
2019-02-11T03:22:52.382Z,0.00
2019-02-11T03:23:52.759Z,0.00
2019-02-11T03:24:52.687Z,0.00
2019-02-11T03:25:53.126Z,0.00
2019-02-11T03:26:53.172Z,0.00
2019-02-11T03:27:53.241Z,0.00
2019-02-11T03:28:53.502Z,0.00
2019-02-11T03:29:53.621Z,0.00
2019-02-11T03:30:53.691Z,0.00
2019-02-11T03:31:54.190Z,0.00
2019-02-11T03:32:53.487Z,0.00
2019-02-11T03:33:53.802Z,0.00
2019-02-11T03:34:54.107Z,0.00
2019-02-11T03:35:54.478Z,0.00
2019-02-11T03:36:55.142Z,0.00
2019-02-11T03:37:55.106Z,0.00
2019-02-11T03:38:55.398Z,0.00
2019-02-11T03:39:55.985Z,0.00
2019-02-11T03:40:56.296Z,0.00
2019-02-11T03:41:56.152Z,0.00
2019-02-11T03:42:56.709Z,0.00
2019-02-11T03:43:57.622Z,0.00
2019-02-11T03:44:56.989Z,0.00
2019-02-11T03:45:57.761Z,0.00
2019-02-11T03:46:57.615Z,0.00
2019-02-11T03:47:58.434Z,0.00
2019-02-11T03:48:58.298Z,0.00
2019-02-11T03:49:58.720Z,0.00
2019-02-11T03:51:59.099Z,0.00
2019-02-11T03:52:59.516Z,0.00
2019-02-11T03:53:59.916Z,0.00
2019-02-11T03:55:00.690Z,0.00
2019-02-11T03:56:01.830Z,0.00
2019-02-11T03:57:01.694Z,0.00
2019-02-11T03:58:02.229Z,0.00
2019-02-11T03:59:01.688Z,0.00
2019-02-11T04:00:06.114Z,0.00
2019-02-11T04:01:02.709Z,0.00
2019-02-11T04:02:03.194Z,0.00
2019-02-11T04:03:03.348Z,0.00
2019-02-11T04:04:03.260Z,0.00
2019-02-11T04:05:03.573Z,0.00
2019-02-11T04:06:04.549Z,0.00
2019-02-11T04:07:05.066Z,0.00
2019-02-11T04:08:04.602Z,0.00
2019-02-11T04:09:04.400Z,0.00
2019-02-11T04:10:05.190Z,0.00
2019-02-11T04:11:05.301Z,0.00
2019-02-11T04:12:06.021Z,0.00
2019-02-11T04:13:05.891Z,0.00
2019-02-11T04:14:06.530Z,0.00
2019-02-11T04:15:06.755Z,0.00
2019-02-11T04:16:06.762Z,0.00
2019-02-11T04:17:06.973Z,0.00
2019-02-11T04:18:06.767Z,0.00
2019-02-11T04:19:07.296Z,0.00
2019-02-11T04:20:07.199Z,0.00
2019-02-11T04:21:07.520Z,0.00
2019-02-11T04:22:08.070Z,0.00
2019-02-11T04:23:07.833Z,0.00
2019-02-11T04:24:07.990Z,0.00
2019-02-11T04:25:08.154Z,0.00
2019-02-11T04:26:08.577Z,0.00
2019-02-11T04:27:08.429Z,0.00
2019-02-11T04:28:08.753Z,0.00
2019-02-11T04:29:09.316Z,0.00
2019-02-11T04:30:09.112Z,0.00
2019-02-11T04:31:09.623Z,0.00
2019-02-11T04:32:09.465Z,0.00
2019-02-11T04:33:09.940Z,0.00
2019-02-11T04:34:10.269Z,0.00
2019-02-11T04:35:10.679Z,0.00
2019-02-11T04:36:11.502Z,0.00
2019-02-11T04:37:11.365Z,0.00
2019-02-11T04:38:11.930Z,0.00
2019-02-11T04:39:11.778Z,0.00
2019-02-11T04:40:12.450Z,0.00
2019-02-11T04:41:12.514Z,0.00
2019-02-11T04:42:12.665Z,0.00
2019-02-11T04:43:12.525Z,0.00
2019-02-11T04:44:12.957Z,0.00
2019-02-11T04:45:14.221Z,0.00
2019-02-11T04:46:13.756Z,0.00
2019-02-11T04:47:13.690Z,0.00
2019-02-11T04:48:14.454Z,0.00
2019-02-11T04:49:14.358Z,0.00
2019-02-11T04:50:15.388Z,0.00
2019-02-11T04:51:15.255Z,0.00
2019-02-11T04:52:16.019Z,0.00
2019-02-11T04:53:16.594Z,0.00
2019-02-11T04:54:16.360Z,0.00
2019-02-11T04:55:16.440Z,0.00
2019-02-11T04:56:16.354Z,0.00
2019-02-11T04:57:16.856Z,0.00
2019-02-11T04:58:17.116Z,0.00
2019-02-11T04:59:17.039Z,0.00
2019-02-11T05:00:18.246Z,0.00
2019-02-11T05:01:17.684Z,0.00
2019-02-11T05:02:17.916Z,0.00
2019-02-11T05:03:18.017Z,0.00
2019-02-11T05:04:18.144Z,0.00
2019-02-11T05:05:18.346Z,0.00
2019-02-11T05:06:18.266Z,0.00
2019-02-11T05:07:18.982Z,0.00
2019-02-11T05:08:18.881Z,0.00
2019-02-11T05:09:19.228Z,0.00
2019-02-11T05:10:19.608Z,0.00
2019-02-11T05:11:20.777Z,0.00
2019-02-11T05:12:20.883Z,0.00
2019-02-11T05:13:21.267Z,0.00
2019-02-11T05:14:21.477Z,0.00
2019-02-11T05:15:21.484Z,0.00
2019-02-11T05:16:21.777Z,0.00
2019-02-11T05:17:21.868Z,0.00
2019-02-11T05:18:21.605Z,0.00
2019-02-11T05:19:21.979Z,0.00
2019-02-11T05:20:22.340Z,0.00
2019-02-11T05:21:23.262Z,0.00
2019-02-11T05:22:23.278Z,0.00
2019-02-11T05:23:23.177Z,0.00
2019-02-11T05:24:23.547Z,0.00
2019-02-11T05:25:24.321Z,0.00
2019-02-11T05:26:24.174Z,0.00
2019-02-11T05:27:24.596Z,0.00
2019-02-11T05:28:25.011Z,0.00
2019-02-11T05:29:25.494Z,0.00
2019-02-11T05:30:25.954Z,0.00
2019-02-11T05:31:26.353Z,0.00
2019-02-11T05:32:26.933Z,0.00
2019-02-11T05:33:26.829Z,0.00
2019-02-11T05:34:27.201Z,0.00
2019-02-11T05:35:27.553Z,0.00
2019-02-11T05:36:27.917Z,0.00
2019-02-11T05:37:28.274Z,0.00
2019-02-11T05:38:28.675Z,0.00
2019-02-11T05:39:29.320Z,0.00
2019-02-11T05:40:29.184Z,0.00
2019-02-11T05:41:29.634Z,0.00
2019-02-11T05:42:30.875Z,0.00
2019-02-11T05:43:30.260Z,0.00
2019-02-11T05:44:30.667Z,0.00
2019-02-11T05:45:31.077Z,0.00
2019-02-11T05:46:31.578Z,0.00
2019-02-11T05:47:31.993Z,0.00
2019-02-11T05:48:32.594Z,0.00
2019-02-11T05:49:32.507Z,0.00
2019-02-11T05:50:32.885Z,0.00
2019-02-11T05:51:33.353Z,0.00
2019-02-11T05:52:34.323Z,0.00
2019-02-11T05:53:33.987Z,0.00
2019-02-11T05:54:33.869Z,0.00
2019-02-11T05:55:34.192Z,0.00
2019-02-11T05:56:35.063Z,0.00
2019-02-11T05:57:35.689Z,0.00
2019-02-11T05:58:36.109Z,0.00
2019-02-11T05:59:36.412Z,0.00
2019-02-11T06:00:36.732Z,0.00
2019-02-11T06:01:37.253Z,0.00
2019-02-11T06:02:37.148Z,0.00
2019-02-11T06:03:37.741Z,0.00
2019-02-11T06:04:37.870Z,0.00
2019-02-11T06:05:37.935Z,0.00
2019-02-11T06:06:38.006Z,0.00
2019-02-11T06:07:38.019Z,0.00
2019-02-11T06:08:37.915Z,1.00
2019-02-11T06:09:38.431Z,1.00
2019-02-11T06:11:38.067Z,1.00
2019-02-11T06:12:38.388Z,1.00
2019-02-11T06:13:38.704Z,2.00
2019-02-11T06:14:38.558Z,2.00
2019-02-11T06:15:39.686Z,2.00
2019-02-11T06:16:39.037Z,3.00
2019-02-11T06:17:39.360Z,3.00
2019-02-11T06:18:39.788Z,3.00
2019-02-11T06:19:40.363Z,3.00
2019-02-11T06:20:40.643Z,5.00
2019-02-11T06:21:40.498Z,7.00
2019-02-11T06:22:40.945Z,7.00
2019-02-11T06:23:41.501Z,7.00
2019-02-11T06:24:41.513Z,10.00
2019-02-11T06:25:41.369Z,12.00
2019-02-11T06:26:41.787Z,14.00
2019-02-11T06:27:42.185Z,15.00
2019-02-11T06:28:42.602Z,17.00
2019-02-11T06:29:43.378Z,23.00
2019-02-11T06:30:43.358Z,31.00
2019-02-11T06:31:44.102Z,35.00
2019-02-11T06:32:44.310Z,38.00
2019-02-11T06:33:44.531Z,41.00
2019-02-11T06:34:44.491Z,43.00
2019-02-11T06:35:44.903Z,47.00
2019-02-11T06:36:45.370Z,50.00
2019-02-11T06:37:45.879Z,45.00
2019-02-11T06:38:46.182Z,38.00
2019-02-11T06:39:46.008Z,45.00
2019-02-11T06:40:46.483Z,45.00
2019-02-11T06:41:46.864Z,50.00
2019-02-11T06:42:48.032Z,51.00
2019-02-11T06:43:47.416Z,57.00
2019-02-11T06:44:47.939Z,72.00
2019-02-11T06:45:48.153Z,66.00
2019-02-11T06:46:48.573Z,73.00
2019-02-11T06:47:48.581Z,75.00
2019-02-11T06:48:48.520Z,97.00
2019-02-11T06:49:48.873Z,117.00
2019-02-11T06:50:49.362Z,115.00
2019-02-11T06:51:49.832Z,95.00
2019-02-11T06:52:50.253Z,95.00
2019-02-11T06:53:50.884Z,94.00
2019-02-11T06:54:51.387Z,105.00
2019-02-11T06:55:50.988Z,123.00
2019-02-11T06:56:51.200Z,126.00
2019-02-11T06:57:51.635Z,166.00
2019-02-11T06:58:51.931Z,194.00
2019-02-11T06:59:52.372Z,235.00
2019-02-11T07:00:52.496Z,215.00
2019-02-11T07:01:55.092Z,248.00
2019-02-11T07:02:52.503Z,184.00
2019-02-11T07:03:52.939Z,169.00
2019-02-11T07:04:54.310Z,182.00
2019-02-11T07:05:53.218Z,222.00
2019-02-11T07:06:53.743Z,233.00
2019-02-11T07:07:54.098Z,203.00
2019-02-11T07:08:54.375Z,197.00
2019-02-11T07:09:54.316Z,190.00
2019-02-11T07:10:55.961Z,204.00
2019-02-11T07:11:55.177Z,249.00
2019-02-11T07:12:55.827Z,271.00
2019-02-11T07:13:56.224Z,363.00
2019-02-11T07:14:56.193Z,384.00
2019-02-11T07:15:56.622Z,417.00
2019-02-11T07:16:57.592Z,426.00
2019-02-11T07:17:57.656Z,527.00
2019-02-11T07:18:57.479Z,649.00
2019-02-11T07:19:57.881Z,625.00
2019-02-11T07:20:59.148Z,664.00
2019-02-11T07:21:58.739Z,675.00
2019-02-11T07:22:58.615Z,695.00
2019-02-11T07:23:59.466Z,727.00
2019-02-11T07:24:59.430Z,765.00
2019-02-11T07:25:59.653Z,743.00
2019-02-11T07:27:00.628Z,707.00
2019-02-11T07:28:00.724Z,747.00
2019-02-11T07:29:01.347Z,712.00
2019-02-11T07:30:01.844Z,660.00
2019-02-11T07:31:01.972Z,651.00
2019-02-11T07:32:02.284Z,771.00
2019-02-11T07:33:02.188Z,765.00
2019-02-11T07:34:02.718Z,743.00
2019-02-11T07:35:02.107Z,895.00
2019-02-11T07:36:02.364Z,810.00
2019-02-11T07:37:02.689Z,817.00
2019-02-11T07:38:03.739Z,776.00
2019-02-11T07:39:04.085Z,734.00
2019-02-11T07:40:03.364Z,663.00
2019-02-11T07:41:03.663Z,650.00
2019-02-11T07:42:04.735Z,715.00
2019-02-11T07:43:04.402Z,903.00
2019-02-11T07:44:05.017Z,957.00
2019-02-11T07:45:04.732Z,957.00
2019-02-11T07:46:05.140Z,1121.00
2019-02-11T07:47:05.557Z,1260.00
2019-02-11T07:48:05.970Z,1134.00
2019-02-11T07:49:06.079Z,1267.00
2019-02-11T07:50:06.075Z,1400.00
2019-02-11T07:51:06.681Z,1223.00
2019-02-11T07:52:06.814Z,1150.00
2019-02-11T07:53:06.826Z,1000.00
2019-02-11T07:54:06.726Z,1075.00
2019-02-11T07:55:07.153Z,1064.00
2019-02-11T07:56:07.451Z,1005.00
2019-02-11T07:57:07.983Z,1066.00
2019-02-11T07:58:07.984Z,1147.00
2019-02-11T07:59:08.249Z,1508.00
2019-02-11T08:00:08.229Z,1582.00
2019-02-11T08:01:08.675Z,1641.00
2019-02-11T08:02:09.114Z,1603.00
2019-02-11T08:03:09.502Z,1593.00
2019-02-11T08:04:10.168Z,1537.00
2019-02-11T08:05:10.481Z,1317.00
2019-02-11T08:06:10.499Z,1593.00
2019-02-11T08:07:10.361Z,1648.00
2019-02-11T08:08:10.786Z,1780.00
2019-02-11T08:09:11.193Z,1834.00
2019-02-11T08:10:11.947Z,1682.00
2019-02-11T08:11:12.547Z,1430.00
2019-02-11T08:12:12.325Z,1417.00
2019-02-11T08:13:12.787Z,1283.00
2019-02-11T08:14:13.180Z,1236.00
2019-02-11T08:15:13.827Z,1140.00
2019-02-11T08:16:13.692Z,1051.00
2019-02-11T08:17:14.376Z,910.00
2019-02-11T08:18:14.765Z,867.00
2019-02-11T08:19:14.979Z,843.00
2019-02-11T08:20:15.518Z,875.00
2019-02-11T08:21:14.956Z,866.00
2019-02-11T08:22:15.372Z,812.00
2019-02-11T08:23:15.808Z,838.00
2019-02-11T08:24:16.342Z,868.00
2019-02-11T08:25:16.988Z,917.00
2019-02-11T08:26:16.422Z,1059.00
2019-02-11T08:27:17.046Z,1037.00
2019-02-11T08:28:19.573Z,982.00
2019-02-11T08:29:17.427Z,1038.00
2019-02-11T08:30:18.018Z,1229.00
2019-02-11T08:31:17.364Z,1564.00
2019-02-11T08:32:17.692Z,2358.00
2019-02-11T08:33:18.202Z,2400.00
2019-02-11T08:34:18.211Z,2089.00
2019-02-11T08:35:18.112Z,1816.00
2019-02-11T08:36:18.456Z,1896.00
2019-02-11T08:37:19.045Z,1956.00
2019-02-11T08:38:19.400Z,2262.00
2019-02-11T08:39:19.416Z,2006.00
2019-02-11T08:40:20.650Z,1991.00
2019-02-11T08:41:20.753Z,2195.00
2019-02-11T08:42:20.961Z,2214.00
2019-02-11T08:43:21.169Z,2912.00
2019-02-11T08:44:21.281Z,3268.00
2019-02-11T08:46:21.394Z,2410.00
2019-02-11T08:47:21.392Z,2794.00
2019-02-11T08:48:21.623Z,2599.00
2019-02-11T08:49:22.451Z,2561.00
2019-02-11T08:50:22.458Z,2390.00
2019-02-11T08:51:22.502Z,2280.00
2019-02-11T08:52:21.906Z,2304.00
2019-02-11T08:53:27.243Z,2441.00
2019-02-11T08:54:23.139Z,2246.00
2019-02-11T08:55:23.422Z,2241.00
2019-02-11T08:56:23.417Z,2290.00
2019-02-11T08:57:23.430Z,2421.00
2019-02-11T08:58:23.280Z,2401.00
2019-02-11T08:59:23.600Z,2276.00
2019-02-11T09:00:24.025Z,2442.00
2019-02-11T09:01:24.422Z,2588.00
2019-02-11T09:02:24.894Z,2556.00
2019-02-11T09:03:25.601Z,2639.00
2019-02-11T09:04:25.465Z,2702.00
2019-02-11T09:05:26.440Z,2928.00
2019-02-11T09:06:26.250Z,3136.00
2019-02-11T09:07:26.100Z,3304.00
2019-02-11T09:08:26.512Z,4067.00
2019-02-11T09:09:26.858Z,4118.00
2019-02-11T09:10:27.805Z,4740.00
2019-02-11T09:11:27.821Z,5856.00
2019-02-11T09:12:27.677Z,7163.00
2019-02-11T09:13:28.444Z,7077.00
2019-02-11T09:14:28.293Z,8131.00
2019-02-11T09:15:28.706Z,9331.00
2019-02-11T09:16:29.580Z,10670.00
2019-02-11T09:17:29.558Z,8803.00
2019-02-11T09:18:30.100Z,7916.00
2019-02-11T09:19:30.420Z,7350.00
2019-02-11T09:20:30.348Z,6713.00
2019-02-11T09:21:30.853Z,6180.00
2019-02-11T09:22:30.747Z,6310.00
2019-02-11T09:23:32.040Z,5636.00
2019-02-11T09:24:31.430Z,6653.00
2019-02-11T09:25:31.759Z,5646.00
2019-02-11T09:26:32.078Z,4825.00
2019-02-11T09:27:32.651Z,4555.00
2019-02-11T09:28:32.482Z,5229.00
2019-02-11T09:29:33.040Z,5768.00
2019-02-11T09:30:32.912Z,5767.00
2019-02-11T09:31:33.582Z,5080.00
2019-02-11T09:32:33.439Z,4965.00
2019-02-11T09:33:33.852Z,4127.00
2019-02-11T09:34:34.413Z,4054.00
2019-02-11T09:35:34.292Z,4294.00
2019-02-11T09:36:35.145Z,4775.00
2019-02-11T09:37:36.764Z,5357.00
2019-02-11T09:38:36.018Z,5187.00
2019-02-11T09:39:36.393Z,5586.00
2019-02-11T09:40:36.647Z,6290.00
2019-02-11T09:41:36.661Z,7010.00
2019-02-11T09:42:36.612Z,7234.00
2019-02-11T09:43:37.028Z,6509.00
2019-02-11T09:44:37.469Z,6866.00
2019-02-11T09:45:37.768Z,7548.00
2019-02-11T09:46:38.007Z,7701.00
2019-02-11T09:47:38.402Z,8233.00
2019-02-11T09:48:38.807Z,6539.00
2019-02-11T09:49:38.898Z,6476.00
2019-02-11T09:50:38.794Z,6527.00
2019-02-11T09:51:39.264Z,6997.00
2019-02-11T09:52:39.534Z,6562.00
2019-02-11T09:53:39.916Z,7392.00
2019-02-11T09:54:40.393Z,8254.00
2019-02-11T09:55:40.759Z,9806.00
2019-02-11T09:56:41.757Z,10606.00
2019-02-11T09:57:41.582Z,11089.00
2019-02-11T09:58:41.999Z,10270.00
2019-02-11T09:59:42.477Z,10554.00
2019-02-11T10:00:42.897Z,11439.00
2019-02-11T10:01:43.207Z,13235.00
2019-02-11T10:02:43.560Z,65536.00
2019-02-11T10:03:44.400Z,12157.00
2019-02-11T10:04:45.049Z,12550.00
2019-02-11T10:05:44.449Z,13781.00
2019-02-11T10:06:44.974Z,65536.00
2019-02-11T10:07:44.873Z,14131.00
2019-02-11T10:08:45.278Z,13616.00
2019-02-11T10:09:45.604Z,13835.00
2019-02-11T10:10:46.115Z,13321.00
2019-02-11T10:11:46.504Z,65536.00
2019-02-11T10:12:47.361Z,65536.00
2019-02-11T10:13:47.218Z,65536.00
2019-02-11T10:14:47.536Z,65536.00
2019-02-11T10:15:48.058Z,65536.00
2019-02-11T10:16:47.976Z,14886.00
2019-02-11T10:17:48.687Z,13396.00
2019-02-11T10:18:48.755Z,12668.00
2019-02-11T10:19:48.590Z,12157.00
2019-02-11T10:20:49.009Z,65536.00
2019-02-11T10:21:49.883Z,10850.00
2019-02-11T10:22:50.187Z,10375.00
2019-02-11T10:23:50.942Z,11303.00
2019-02-11T10:24:51.017Z,11490.00
2019-02-11T10:25:51.359Z,13454.00
2019-02-11T10:26:51.702Z,10294.00
2019-02-11T10:27:51.755Z,12922.00
2019-02-11T10:28:52.476Z,10405.00
2019-02-11T10:29:52.587Z,10118.00
2019-02-11T10:30:52.642Z,10860.00
2019-02-11T10:31:52.913Z,11274.00
2019-02-11T10:32:52.730Z,12909.00
2019-02-11T10:33:53.072Z,13970.00
2019-02-11T10:34:53.033Z,13658.00
2019-02-11T10:35:53.950Z,13802.00
2019-02-11T10:36:53.989Z,12744.00
2019-02-11T10:37:53.984Z,12026.00
2019-02-11T10:38:54.373Z,9680.00
2019-02-11T10:39:54.780Z,9444.00
2019-02-11T10:40:55.091Z,65536.00
2019-02-11T10:41:55.487Z,11205.00
2019-02-11T10:42:55.810Z,10108.00
2019-02-11T10:43:57.085Z,9169.00
2019-02-11T10:44:56.738Z,7687.00
2019-02-11T10:45:56.522Z,6689.00
2019-02-11T10:46:57.039Z,4782.00
2019-02-11T10:47:57.375Z,3471.00
2019-02-11T10:48:57.682Z,2887.00
2019-02-11T10:49:58.100Z,2335.00
2019-02-11T10:50:58.383Z,2080.00
2019-02-11T10:51:58.753Z,2133.00
2019-02-11T10:52:59.606Z,2131.00
2019-02-11T10:54:00.526Z,2268.00
2019-02-11T10:55:00.211Z,2535.00
2019-02-11T10:55:59.984Z,2292.00
2019-02-11T10:57:00.780Z,2049.00
2019-02-11T10:58:01.066Z,1922.00
2019-02-11T10:59:01.072Z,1937.00
2019-02-11T11:00:01.796Z,2455.00
2019-02-11T11:01:01.433Z,2869.00
2019-02-11T11:02:01.704Z,3078.00
2019-02-11T11:03:01.573Z,3882.00
2019-02-11T11:04:02.844Z,5207.00
2019-02-11T11:05:03.469Z,5370.00
2019-02-11T11:06:02.963Z,5419.00
2019-02-11T11:07:03.001Z,5605.00
2019-02-11T11:08:03.080Z,5443.00
2019-02-11T11:09:04.656Z,5649.00
2019-02-11T11:11:03.607Z,6693.00
2019-02-11T11:12:03.718Z,6042.00
2019-02-11T11:13:03.932Z,6234.00
2019-02-11T11:14:03.625Z,6472.00
2019-02-11T11:15:03.628Z,6457.00
2019-02-11T11:16:03.947Z,6643.00
2019-02-11T11:17:04.364Z,6396.00
2019-02-11T11:18:04.561Z,6588.00
2019-02-11T11:19:05.043Z,6963.00
2019-02-11T11:20:05.813Z,6945.00
2019-02-11T11:21:05.623Z,6688.00
2019-02-11T11:22:05.831Z,6455.00
2019-02-11T11:23:06.255Z,7110.00
2019-02-11T11:24:06.317Z,8008.00
2019-02-11T11:25:06.665Z,8573.00
2019-02-11T11:26:06.780Z,8383.00
2019-02-11T11:27:06.782Z,8599.00
2019-02-11T11:28:06.794Z,9216.00
2019-02-11T11:29:07.466Z,10151.00
2019-02-11T11:30:07.317Z,10867.00
2019-02-11T11:31:07.322Z,11251.00
2019-02-11T11:32:07.544Z,11346.00
2019-02-11T11:33:07.652Z,11403.00
2019-02-11T11:34:07.603Z,11559.00
2019-02-11T11:35:08.034Z,11779.00
2019-02-11T11:36:08.405Z,11696.00
2019-02-11T11:37:08.370Z,11256.00
2019-02-11T11:38:08.766Z,11168.00
2019-02-11T11:39:09.179Z,11054.00
2019-02-11T11:40:09.657Z,10320.00
2019-02-11T11:41:09.607Z,9807.00
2019-02-11T11:42:10.042Z,10460.00
2019-02-11T11:43:10.415Z,10911.00
2019-02-11T11:44:10.745Z,11381.00
2019-02-11T11:45:11.156Z,11804.00
2019-02-11T11:46:11.572Z,11775.00
2019-02-11T11:47:11.876Z,11544.00
2019-02-11T11:48:12.212Z,12267.00
2019-02-11T11:49:12.619Z,12597.00
2019-02-11T11:50:13.037Z,12513.00
2019-02-11T11:51:13.152Z,12289.00
2019-02-11T11:52:13.561Z,12442.00
2019-02-11T11:53:14.123Z,12510.00
2019-02-11T11:54:14.406Z,12441.00
2019-02-11T11:55:15.196Z,12459.00
2019-02-11T11:56:14.558Z,12310.00
2019-02-11T11:57:14.478Z,12175.00
2019-02-11T11:58:14.898Z,12009.00
2019-02-11T11:59:15.309Z,11815.00
2019-02-11T12:00:15.935Z,12120.00
2019-02-11T12:01:19.083Z,12044.00
2019-02-11T12:02:16.645Z,12060.00
2019-02-11T12:03:16.655Z,11725.00
2019-02-11T12:04:16.525Z,11483.00
2019-02-11T12:05:17.048Z,11352.00
2019-02-11T12:06:17.379Z,11154.00
2019-02-11T12:07:17.254Z,10919.00
2019-02-11T12:08:18.019Z,10823.00
2019-02-11T12:09:18.240Z,10915.00
2019-02-11T12:10:18.442Z,11111.00
2019-02-11T12:11:18.414Z,11255.00
2019-02-11T12:12:18.820Z,11341.00
2019-02-11T12:13:22.885Z,11456.00
2019-02-11T12:14:20.436Z,11539.00
2019-02-11T12:15:20.421Z,11615.00
2019-02-11T12:16:20.993Z,11716.00
2019-02-11T12:17:20.856Z,11777.00
2019-02-11T12:18:21.068Z,11844.00
2019-02-11T12:19:21.177Z,11827.00
2019-02-11T12:20:21.372Z,11794.00
2019-02-11T12:21:21.472Z,11827.00
2019-02-11T12:22:21.488Z,11906.00
2019-02-11T12:23:21.799Z,12019.00
2019-02-11T12:24:22.435Z,12214.00
2019-02-11T12:25:22.435Z,12390.00
2019-02-11T12:26:22.549Z,12565.00
2019-02-11T12:27:22.544Z,12723.00
2019-02-11T12:28:22.749Z,12929.00
2019-02-11T12:29:22.677Z,13203.00
2019-02-11T12:30:22.996Z,13422.00
2019-02-11T12:31:23.391Z,13391.00
2019-02-11T12:32:23.169Z,13114.00
2019-02-11T12:33:23.943Z,12859.00
2019-02-11T12:34:24.129Z,12824.00
2019-02-11T12:35:24.030Z,12327.00
2019-02-11T12:36:24.955Z,12129.00
2019-02-11T12:37:24.960Z,11993.00
2019-02-11T12:38:25.784Z,11787.00
2019-02-11T12:39:26.346Z,11596.00
2019-02-11T12:40:25.731Z,11522.00
2019-02-11T12:41:26.107Z,11371.00
2019-02-11T12:42:26.391Z,11408.00
2019-02-11T12:43:27.399Z,11554.00
2019-02-11T12:44:27.919Z,11717.00
2019-02-11T12:45:27.354Z,11216.00
2019-02-11T12:46:28.194Z,11018.00
2019-02-11T12:47:28.004Z,11281.00
2019-02-11T12:48:29.138Z,11047.00
2019-02-11T12:49:31.147Z,11008.00